sensor_id;sensor_type;location;lat;lon;timestamp;pressure;altitude;pressure_sealevel;temperature;humidity
69574;BME280;62840;52.366;5.980;2023-02-22T00:00:51;101489.06;;;8.85;75.71
69574;BME280;62840;52.366;5.980;2023-02-22T00:03:20;101496.19;;;8.85;75.62
69574;BME280;62840;52.366;5.980;2023-02-22T00:05:47;101496.19;;;8.85;75.78
69574;BME280;62840;52.366;5.980;2023-02-22T00:08:14;101490.03;;;8.84;75.49
69574;BME280;62840;52.366;5.980;2023-02-22T00:10:42;101494.47;;;8.84;75.33
69574;BME280;62840;52.366;5.980;2023-02-22T00:13:12;101493.63;;;8.83;75.37
69574;BME280;62840;52.366;5.980;2023-02-22T00:15:39;101479.56;;;8.81;75.42
69574;BME280;62840;52.366;5.980;2023-02-22T00:18:05;101481.31;;;8.82;75.25
69574;BME280;62840;52.366;5.980;2023-02-22T00:20:31;101479.56;;;8.81;75.37
69574;BME280;62840;52.366;5.980;2023-02-22T00:22:57;101468.94;;;8.81;75.47
69574;BME280;62840;52.366;5.980;2023-02-22T00:25:23;101469.78;;;8.82;75.43
69574;BME280;62840;52.366;5.980;2023-02-22T00:27:50;101466.41;;;8.79;75.54
69574;BME280;62840;52.366;5.980;2023-02-22T00:30:21;101471.72;;;8.79;75.40
69574;BME280;62840;52.366;5.980;2023-02-22T00:32:49;101463.84;;;8.78;75.56
69574;BME280;62840;52.366;5.980;2023-02-22T00:35:17;101465.72;;;8.76;75.49
69574;BME280;62840;52.366;5.980;2023-02-22T00:37:46;101464.88;;;8.75;75.40
69574;BME280;62840;52.366;5.980;2023-02-22T00:40:15;101471.91;;;8.76;75.32
69574;BME280;62840;52.366;5.980;2023-02-22T00:42:42;101471.91;;;8.76;75.35
69574;BME280;62840;52.366;5.980;2023-02-22T00:45:08;101471.81;;;8.78;75.45
69574;BME280;62840;52.366;5.980;2023-02-22T00:47:37;101462.09;;;8.77;75.40
69574;BME280;62840;52.366;5.980;2023-02-22T00:50:03;101464.75;;;8.77;75.19
69574;BME280;62840;52.366;5.980;2023-02-22T00:52:30;101463.84;;;8.78;75.21
69574;BME280;62840;52.366;5.980;2023-02-22T00:54:56;101468.31;;;8.77;75.08
69574;BME280;62840;52.366;5.980;2023-02-22T00:57:22;101471.06;;;8.76;75.21
69574;BME280;62840;52.366;5.980;2023-02-22T00:59:49;101466.78;;;8.73;75.28
69574;BME280;62840;52.366;5.980;2023-02-22T01:02:15;101464.03;;;8.75;75.28
69574;BME280;62840;52.366;5.980;2023-02-22T01:04:44;101458.72;;;8.75;75.10
69574;BME280;62840;52.366;5.980;2023-02-22T01:07:10;101464.03;;;8.75;75.01
69574;BME280;62840;52.366;5.980;2023-02-22T01:09:35;101456.06;;;8.75;75.05
69574;BME280;62840;52.366;5.980;2023-02-22T01:12:01;101448.09;;;8.75;75.03
69574;BME280;62840;52.366;5.980;2023-02-22T01:14:28;101457.00;;;8.74;75.05
69574;BME280;62840;52.366;5.980;2023-02-22T01:16:54;101459.66;;;8.74;74.94
69574;BME280;62840;52.366;5.980;2023-02-22T01:19:22;101463.38;;;8.71;74.76
69574;BME280;62840;52.366;5.980;2023-02-22T01:21:51;101451.00;;;8.70;74.90
69574;BME280;62840;52.366;5.980;2023-02-22T01:24:18;101459.13;;;8.69;74.93
69574;BME280;62840;52.366;5.980;2023-02-22T01:26:49;101448.47;;;8.69;74.98
69574;BME280;62840;52.366;5.980;2023-02-22T01:29:17;101446.75;;;8.68;74.86
69574;BME280;62840;52.366;5.980;2023-02-22T01:31:50;101445.06;;;8.67;74.77
69574;BME280;62840;52.366;5.980;2023-02-22T01:34:17;101438.03;;;8.66;74.81
69574;BME280;62840;52.366;5.980;2023-02-22T01:36:43;101446.97;;;8.65;74.60
69574;BME280;62840;52.366;5.980;2023-02-22T01:39:11;101431.00;;;8.65;74.77
69574;BME280;62840;52.366;5.980;2023-02-22T01:41:37;101428.25;;;8.66;74.66
69574;BME280;62840;52.366;5.980;2023-02-22T01:44:17;101429.31;;;8.64;74.50
69574;BME280;62840;52.366;5.980;2023-02-22T01:46:45;101424.38;;;8.57;74.44
69574;BME280;62840;52.366;5.980;2023-02-22T01:49:12;101420.13;;;8.55;74.53
69574;BME280;62840;52.366;5.980;2023-02-22T01:51:43;101419.25;;;8.54;74.45
69574;BME280;62840;52.366;5.980;2023-02-22T01:54:17;101415.84;;;8.52;74.45
69574;BME280;62840;52.366;5.980;2023-02-22T01:56:49;101414.16;;;8.51;74.56
69574;BME280;62840;52.366;5.980;2023-02-22T01:59:19;101407.97;;;8.51;74.48
69574;BME280;62840;52.366;5.980;2023-02-22T02:01:47;101408.81;;;8.51;74.38
69574;BME280;62840;52.366;5.980;2023-02-22T02:04:16;101410.72;;;8.49;74.57
69574;BME280;62840;52.366;5.980;2023-02-22T02:06:46;101407.13;;;8.50;74.50
69574;BME280;62840;52.366;5.980;2023-02-22T02:09:19;101405.41;;;8.49;74.40
69574;BME280;62840;52.366;5.980;2023-02-22T02:11:50;101400.31;;;8.46;74.29
69574;BME280;62840;52.366;5.980;2023-02-22T02:14:17;101396.91;;;8.44;74.33
69574;BME280;62840;52.366;5.980;2023-02-22T02:16:46;101395.16;;;8.43;74.40
69574;BME280;62840;52.366;5.980;2023-02-22T02:19:19;101396.13;;;8.42;74.39
69574;BME280;62840;52.366;5.980;2023-02-22T02:25:30;101392.50;;;8.43;74.23
69574;BME280;62840;52.366;5.980;2023-02-22T02:34:49;101390.44;;;8.34;74.40
69574;BME280;62840;52.366;5.980;2023-02-22T02:37:31;101388.75;;;8.33;74.45
69574;BME280;62840;52.366;5.980;2023-02-22T02:40:11;101381.63;;;8.33;74.44
69574;BME280;62840;52.366;5.980;2023-02-22T02:42:52;101378.13;;;8.33;74.20
69574;BME280;62840;52.366;5.980;2023-02-22T02:45:39;101373.88;;;8.30;74.20
69574;BME280;62840;52.366;5.980;2023-02-22T02:48:16;101370.47;;;8.28;74.21
69574;BME280;62840;52.366;5.980;2023-02-22T02:50:50;101369.63;;;8.28;74.29
69574;BME280;62840;52.366;5.980;2023-02-22T02:53:21;101365.31;;;8.25;74.12
69574;BME280;62840;52.366;5.980;2023-02-22T02:55:51;101360.97;;;8.24;73.84
69574;BME280;62840;52.366;5.980;2023-02-22T02:58:19;101354.91;;;8.22;73.88
69574;BME280;62840;52.366;5.980;2023-02-22T03:00:49;101355.00;;;8.21;74.17
69574;BME280;62840;52.366;5.980;2023-02-22T03:03:45;101361.28;;;8.20;74.02
69574;BME280;62840;52.366;5.980;2023-02-22T03:06:33;101356.16;;;8.16;74.08
69574;BME280;62840;52.366;5.980;2023-02-22T03:09:21;101349.13;;;8.15;74.26
69574;BME280;62840;52.366;5.980;2023-02-22T03:12:10;101355.41;;;8.14;74.09
69574;BME280;62840;52.366;5.980;2023-02-22T03:14:53;101347.44;;;8.14;74.21
69574;BME280;62840;52.366;5.980;2023-02-22T03:17:39;101345.72;;;8.13;74.25
69574;BME280;62840;52.366;5.980;2023-02-22T03:20:21;101335.22;;;8.12;74.28
69574;BME280;62840;52.366;5.980;2023-02-22T03:22:57;101337.13;;;8.10;74.11
69574;BME280;62840;52.366;5.980;2023-02-22T03:25:32;101336.22;;;8.09;74.17
69574;BME280;62840;52.366;5.980;2023-02-22T03:28:04;101328.25;;;8.09;74.21
69574;BME280;62840;52.366;5.980;2023-02-22T03:30:38;101328.25;;;8.09;74.24
69574;BME280;62840;52.366;5.980;2023-02-22T03:33:14;101321.25;;;8.08;74.28
69574;BME280;62840;52.366;5.980;2023-02-22T03:35:50;101332.72;;;8.09;74.34
69574;BME280;62840;52.366;5.980;2023-02-22T03:38:26;101330.91;;;8.09;74.50
69574;BME280;62840;52.366;5.980;2023-02-22T03:40:59;101333.56;;;8.09;74.21
69574;BME280;62840;52.366;5.980;2023-02-22T03:43:31;101337.19;;;8.08;74.04
69574;BME280;62840;52.366;5.980;2023-02-22T03:46:03;101325.91;;;8.05;74.20
69574;BME280;62840;52.366;5.980;2023-02-22T03:48:37;101323.38;;;8.03;73.97
69574;BME280;62840;52.366;5.980;2023-02-22T03:51:10;101320.88;;;8.00;74.10
69574;BME280;62840;52.366;5.980;2023-02-22T03:53:37;101327.16;;;7.99;74.15
69574;BME280;62840;52.366;5.980;2023-02-22T03:56:06;101320.13;;;7.98;74.06
69574;BME280;62840;52.366;5.980;2023-02-22T03:58:36;101323.97;;;7.94;73.97
69574;BME280;62840;52.366;5.980;2023-02-22T04:01:06;101333.72;;;7.93;74.10
69574;BME280;62840;52.366;5.980;2023-02-22T04:03:32;101325.66;;;7.95;73.91
69574;BME280;62840;52.366;5.980;2023-02-22T04:05:58;101321.09;;;7.97;74.21
69574;BME280;62840;52.366;5.980;2023-02-22T04:08:26;101319.28;;;7.98;73.99
69574;BME280;62840;52.366;5.980;2023-02-22T04:10:52;101320.34;;;7.95;73.87
69574;BME280;62840;52.366;5.980;2023-02-22T04:13:17;101314.28;;;7.93;73.54
69574;BME280;62840;52.366;5.980;2023-02-22T04:15:43;101317.31;;;7.87;73.54
69574;BME280;62840;52.366;5.980;2023-02-22T04:18:09;101316.75;;;7.82;73.69
69574;BME280;62840;52.366;5.980;2023-02-22T04:20:34;101310.69;;;7.80;73.64
69574;BME280;62840;52.366;5.980;2023-02-22T04:23:00;101317.06;;;7.77;73.95
69574;BME280;62840;52.366;5.980;2023-02-22T04:25:29;101306.44;;;7.77;73.90
69574;BME280;62840;52.366;5.980;2023-02-22T04:27:54;101309.00;;;7.79;73.88
69574;BME280;62840;52.366;5.980;2023-02-22T04:30:21;101298.56;;;7.75;73.95
69574;BME280;62840;52.366;5.980;2023-02-22T04:32:47;101298.56;;;7.75;73.76
69574;BME280;62840;52.366;5.980;2023-02-22T04:35:13;101298.56;;;7.75;73.76
69574;BME280;62840;52.366;5.980;2023-02-22T04:37:39;101305.97;;;7.70;73.71
69574;BME280;62840;52.366;5.980;2023-02-22T04:40:06;101302.56;;;7.68;73.68
69574;BME280;62840;52.366;5.980;2023-02-22T04:42:35;101294.03;;;7.63;73.64
69574;BME280;62840;52.366;5.980;2023-02-22T04:45:02;101293.38;;;7.60;73.37
69574;BME280;62840;52.366;5.980;2023-02-22T04:47:29;101293.56;;;7.57;73.65
69574;BME280;62840;52.366;5.980;2023-02-22T04:49:55;101284.94;;;7.53;73.59
69574;BME280;62840;52.366;5.980;2023-02-22T04:52:21;101289.47;;;7.51;73.71
69574;BME280;62840;52.366;5.980;2023-02-22T04:54:46;101288.84;;;7.47;73.54
69574;BME280;62840;52.366;5.980;2023-02-22T04:57:12;101294.06;;;7.49;73.84
69574;BME280;62840;52.366;5.980;2023-02-22T04:59:40;101291.41;;;7.49;73.77
69574;BME280;62840;52.366;5.980;2023-02-22T05:02:06;101290.53;;;7.48;73.73
69574;BME280;62840;52.366;5.980;2023-02-22T05:04:32;101284.47;;;7.46;73.81
69574;BME280;62840;52.366;5.980;2023-02-22T05:06:57;101278.31;;;7.46;73.89
69574;BME280;62840;52.366;5.980;2023-02-22T05:09:23;101279.44;;;7.42;73.58
69574;BME280;62840;52.366;5.980;2023-02-22T05:11:49;101277.94;;;7.38;73.77
69574;BME280;62840;52.366;5.980;2023-02-22T05:14:15;101268.53;;;7.32;73.79
69574;BME280;62840;52.366;5.980;2023-02-22T05:16:44;101266.94;;;7.29;73.84
69574;BME280;62840;52.366;5.980;2023-02-22T05:19:09;101265.97;;;7.30;73.85
69574;BME280;62840;52.366;5.980;2023-02-22T05:21:35;101257.44;;;7.25;73.88
69574;BME280;62840;52.366;5.980;2023-02-22T05:24:01;101256.69;;;7.23;73.88
69574;BME280;62840;52.366;5.980;2023-02-22T05:26:26;101254.22;;;7.20;73.95
69574;BME280;62840;52.366;5.980;2023-02-22T05:28:52;101238.50;;;7.17;74.13
69574;BME280;62840;52.366;5.980;2023-02-22T05:31:18;101241.34;;;7.14;73.98
69574;BME280;62840;52.366;5.980;2023-02-22T05:33:46;101251.19;;;7.12;73.95
69574;BME280;62840;52.366;5.980;2023-02-22T05:36:12;101244.38;;;7.08;73.86
69574;BME280;62840;52.366;5.980;2023-02-22T05:38:38;101237.56;;;7.04;74.14
69574;BME280;62840;52.366;5.980;2023-02-22T05:41:04;101239.47;;;7.02;74.07
69574;BME280;62840;52.366;5.980;2023-02-22T05:43:30;101248.34;;;7.01;74.18
69574;BME280;62840;52.366;5.980;2023-02-22T05:45:55;101243.03;;;7.01;74.20
69574;BME280;62840;52.366;5.980;2023-02-22T05:48:21;101247.50;;;7.00;74.13
69574;BME280;62840;52.366;5.980;2023-02-22T05:50:49;101238.69;;;7.00;74.04
69574;BME280;62840;52.366;5.980;2023-02-22T05:53:15;101236.97;;;6.99;74.03
69574;BME280;62840;52.366;5.980;2023-02-22T05:55:41;101236.97;;;6.99;74.00
69574;BME280;62840;52.366;5.980;2023-02-22T05:58:07;101227.34;;;6.98;73.93
69574;BME280;62840;52.366;5.980;2023-02-22T06:00:32;101233.56;;;6.97;74.14
69574;BME280;62840;52.366;5.980;2023-02-22T06:03:00;101224.97;;;6.93;73.97
69574;BME280;62840;52.366;5.980;2023-02-22T06:05:28;101221.63;;;6.89;74.06
69574;BME280;62840;52.366;5.980;2023-02-22T06:07:57;101222.59;;;6.88;74.11
69574;BME280;62840;52.366;5.980;2023-02-22T06:10:24;101224.28;;;6.89;74.02
69574;BME280;62840;52.366;5.980;2023-02-22T06:12:51;101226.19;;;6.87;73.91
69574;BME280;62840;52.366;5.980;2023-02-22T06:15:18;101229.78;;;6.86;74.03
69574;BME280;62840;52.366;5.980;2023-02-22T06:17:45;101228.06;;;6.85;74.17
69574;BME280;62840;52.366;5.980;2023-02-22T06:20:14;101222.97;;;6.82;74.20
69574;BME280;62840;52.366;5.980;2023-02-22T06:22:41;101218.69;;;6.80;73.98
69574;BME280;62840;52.366;5.980;2023-02-22T06:25:13;101215.28;;;6.78;74.09
69574;BME280;62840;52.366;5.980;2023-02-22T06:27:40;101212.72;;;6.76;74.29
69574;BME280;62840;52.366;5.980;2023-02-22T06:30:07;101219.91;;;6.74;74.29
69574;BME280;62840;52.366;5.980;2023-02-22T06:32:35;101207.63;;;6.73;74.30
69574;BME280;62840;52.366;5.980;2023-02-22T06:35:00;101205.91;;;6.72;74.35
69574;BME280;62840;52.366;5.980;2023-02-22T06:37:26;101204.13;;;6.72;74.30
69574;BME280;62840;52.366;5.980;2023-02-22T06:39:52;101197.94;;;6.72;74.54
69574;BME280;62840;52.366;5.980;2023-02-22T06:42:20;101197.94;;;6.72;74.53
69574;BME280;62840;52.366;5.980;2023-02-22T06:44:46;101198.91;;;6.71;74.56
69574;BME280;62840;52.366;5.980;2023-02-22T06:47:12;101192.84;;;6.69;74.49
69574;BME280;62840;52.366;5.980;2023-02-22T06:49:38;101195.50;;;6.69;74.59
69574;BME280;62840;52.366;5.980;2023-02-22T06:52:04;101202.47;;;6.70;74.39
69574;BME280;62840;52.366;5.980;2023-02-22T06:54:31;101205.91;;;6.72;74.49
69574;BME280;62840;52.366;5.980;2023-02-22T06:56:57;101208.38;;;6.75;74.63
69574;BME280;62840;52.366;5.980;2023-02-22T06:59:25;101218.78;;;6.78;74.73
69574;BME280;62840;52.366;5.980;2023-02-22T07:01:51;101208.94;;;6.80;74.59
69574;BME280;62840;52.366;5.980;2023-02-22T07:04:17;101205.34;;;6.81;74.47
69574;BME280;62840;52.366;5.980;2023-02-22T07:06:44;101198.34;;;6.80;74.47
69574;BME280;62840;52.366;5.980;2023-02-22T07:09:10;101196.66;;;6.79;74.64
69574;BME280;62840;52.366;5.980;2023-02-22T07:11:37;101206.28;;;6.80;74.77
69574;BME280;62840;52.366;5.980;2023-02-22T07:14:03;101208.94;;;6.80;74.76
69574;BME280;62840;52.366;5.980;2023-02-22T07:16:31;101215.09;;;6.81;74.60
69574;BME280;62840;52.366;5.980;2023-02-22T07:18:57;101212.34;;;6.82;74.71
69574;BME280;62840;52.366;5.980;2023-02-22T07:21:22;101215.09;;;6.81;74.91
69574;BME280;62840;52.366;5.980;2023-02-22T07:23:52;101212.34;;;6.82;74.72
69574;BME280;62840;52.366;5.980;2023-02-22T07:26:19;101213.19;;;6.83;74.66
69574;BME280;62840;52.366;5.980;2023-02-22T07:28:46;101210.63;;;6.81;74.93
69574;BME280;62840;52.366;5.980;2023-02-22T07:31:12;101215.00;;;6.82;74.77
69574;BME280;62840;52.366;5.980;2023-02-22T07:33:41;101219.34;;;6.83;74.81
69574;BME280;62840;52.366;5.980;2023-02-22T07:36:08;101219.19;;;6.86;75.37
69574;BME280;62840;52.366;5.980;2023-02-22T07:38:34;101210.25;;;6.87;74.95
69574;BME280;62840;52.366;5.980;2023-02-22T07:40:59;101209.41;;;6.87;74.93
69574;BME280;62840;52.366;5.980;2023-02-22T07:43:26;101210.25;;;6.87;74.95
69574;BME280;62840;52.366;5.980;2023-02-22T07:45:54;101200.50;;;6.88;74.93
69574;BME280;62840;52.366;5.980;2023-02-22T07:48:23;101197.78;;;6.89;74.92
69574;BME280;62840;52.366;5.980;2023-02-22T07:50:53;101195.88;;;6.91;74.91
69574;BME280;62840;52.366;5.980;2023-02-22T07:53:20;101204.59;;;6.93;75.01
69574;BME280;62840;52.366;5.980;2023-02-22T07:55:48;101199.09;;;6.97;75.07
69574;BME280;62840;52.366;5.980;2023-02-22T07:58:14;101192.00;;;6.97;75.01
69574;BME280;62840;52.366;5.980;2023-02-22T08:00:40;101191.91;;;6.99;75.04
69574;BME280;62840;52.366;5.980;2023-02-22T08:03:08;101197.19;;;6.99;74.93
69574;BME280;62840;52.366;5.980;2023-02-22T08:05:36;101193.63;;;7.00;74.90
69574;BME280;62840;52.366;5.980;2023-02-22T08:08:07;101197.03;;;7.02;74.73
69574;BME280;62840;52.366;5.980;2023-02-22T08:10:33;101196.16;;;7.01;74.73
69574;BME280;62840;52.366;5.980;2023-02-22T08:13:00;101199.69;;;7.02;74.98
69574;BME280;62840;52.366;5.980;2023-02-22T08:15:28;101199.47;;;7.05;74.85
69574;BME280;62840;52.366;5.980;2023-02-22T08:17:57;101197.59;;;7.07;74.92
69574;BME280;62840;52.366;5.980;2023-02-22T08:20:24;101191.16;;;7.11;74.90
69574;BME280;62840;52.366;5.980;2023-02-22T08:22:50;101192.84;;;7.12;75.08
69574;BME280;62840;52.366;5.980;2023-02-22T08:25:20;101197.09;;;7.14;74.84
69574;BME280;62840;52.366;5.980;2023-02-22T08:27:47;101191.69;;;7.16;75.05
69574;BME280;62840;52.366;5.980;2023-02-22T08:30:15;101197.78;;;7.18;75.03
69574;BME280;62840;52.366;5.980;2023-02-22T08:32:44;101196.03;;;7.17;75.04
69574;BME280;62840;52.366;5.980;2023-02-22T08:35:11;101197.00;;;7.16;75.31
69574;BME280;62840;52.366;5.980;2023-02-22T08:37:41;101195.13;;;7.18;75.24
69574;BME280;62840;52.366;5.980;2023-02-22T08:40:08;101194.28;;;7.18;75.22
69574;BME280;62840;52.366;5.980;2023-02-22T08:42:37;101184.50;;;7.18;75.43
69574;BME280;62840;52.366;5.980;2023-02-22T08:45:03;101187.16;;;7.18;75.35
69574;BME280;62840;52.366;5.980;2023-02-22T08:47:29;101189.72;;;7.20;75.46
69574;BME280;62840;52.366;5.980;2023-02-22T08:49:55;101194.91;;;7.21;75.40
69574;BME280;62840;52.366;5.980;2023-02-22T08:52:21;101193.78;;;7.25;75.41
69574;BME280;62840;52.366;5.980;2023-02-22T08:54:47;101207.59;;;7.30;75.61
69574;BME280;62840;52.366;5.980;2023-02-22T08:57:13;101196.06;;;7.31;75.49
69574;BME280;62840;52.366;5.980;2023-02-22T08:59:42;101194.03;;;7.35;75.43
69574;BME280;62840;52.366;5.980;2023-02-22T09:02:13;101198.31;;;7.38;75.44
69574;BME280;62840;52.366;5.980;2023-02-22T09:04:39;101189.41;;;7.39;75.55
69574;BME280;62840;52.366;5.980;2023-02-22T09:07:05;101176.97;;;7.39;75.50
69574;BME280;62840;52.366;5.980;2023-02-22T09:09:31;101176.91;;;7.41;75.70
69574;BME280;62840;52.366;5.980;2023-02-22T09:11:57;101183.91;;;7.42;75.58
69574;BME280;62840;52.366;5.980;2023-02-22T09:14:22;101187.31;;;7.44;75.69
69574;BME280;62840;52.366;5.980;2023-02-22T09:16:51;101181.09;;;7.45;75.60
69574;BME280;62840;52.366;5.980;2023-02-22T09:19:16;101171.22;;;7.47;75.69
69574;BME280;62840;52.366;5.980;2023-02-22T09:21:42;101182.59;;;7.49;75.66
69574;BME280;62840;52.366;5.980;2023-02-22T09:24:08;101171.03;;;7.50;75.53
69574;BME280;62840;52.366;5.980;2023-02-22T09:26:34;101179.75;;;7.52;75.67
69574;BME280;62840;52.366;5.980;2023-02-22T09:29:00;101183.16;;;7.54;75.56
69574;BME280;62840;52.366;5.980;2023-02-22T09:31:26;101180.38;;;7.55;75.75
69574;BME280;62840;52.366;5.980;2023-02-22T09:33:54;101186.34;;;7.59;75.71
69574;BME280;62840;52.366;5.980;2023-02-22T09:36:20;101182.75;;;7.60;75.62
69574;BME280;62840;52.366;5.980;2023-02-22T09:38:46;101184.25;;;7.64;75.67
69574;BME280;62840;52.366;5.980;2023-02-22T09:41:15;101179.81;;;7.65;75.73
69574;BME280;62840;52.366;5.980;2023-02-22T09:43:48;101177.25;;;7.63;75.57
69574;BME280;62840;52.366;5.980;2023-02-22T09:46:24;101177.25;;;7.63;75.58
69574;BME280;62840;52.366;5.980;2023-02-22T09:48:59;101173.63;;;7.64;75.64
69574;BME280;62840;52.366;5.980;2023-02-22T09:51:33;101171.94;;;7.63;75.69
69574;BME280;62840;52.366;5.980;2023-02-22T09:54:10;101162.81;;;7.67;75.66
69574;BME280;62840;52.366;5.980;2023-02-22T09:56:47;101156.25;;;7.73;75.61
69574;BME280;62840;52.366;5.980;2023-02-22T09:59:22;101157.75;;;7.77;75.61
69574;BME280;62840;52.366;5.980;2023-02-22T10:01:57;101158.41;;;7.81;75.66
69574;BME280;62840;52.366;5.980;2023-02-22T10:04:37;101150.97;;;7.86;75.68
69574;BME280;62840;52.366;5.980;2023-02-22T10:07:15;101151.66;;;7.89;75.68
69574;BME280;62840;52.366;5.980;2023-02-22T10:09:46;101154.19;;;7.91;75.62
69574;BME280;62840;52.366;5.980;2023-02-22T10:12:22;101146.75;;;7.96;75.65
69574;BME280;62840;52.366;5.980;2023-02-22T10:15:07;101142.00;;;8.01;75.61
69574;BME280;62840;52.366;5.980;2023-02-22T10:17:54;101149.97;;;8.01;75.53
69574;BME280;62840;52.366;5.980;2023-02-22T10:20:40;101154.22;;;8.04;75.53
69574;BME280;62840;52.366;5.980;2023-02-22T10:23:24;101158.47;;;8.06;75.58
69574;BME280;62840;52.366;5.980;2023-02-22T10:26:03;101156.56;;;8.08;75.38
69574;BME280;62840;52.366;5.980;2023-02-22T10:28:41;101163.38;;;8.12;75.39
69574;BME280;62840;52.366;5.980;2023-02-22T10:31:24;101156.16;;;8.14;75.17
69574;BME280;62840;52.366;5.980;2023-02-22T10:33:57;101152.31;;;8.18;75.44
69574;BME280;62840;52.366;5.980;2023-02-22T10:36:28;101151.28;;;8.21;75.15
69574;BME280;62840;52.366;5.980;2023-02-22T10:38:57;101141.28;;;8.25;75.12
69574;BME280;62840;52.366;5.980;2023-02-22T10:41:27;101144.47;;;8.30;75.16
69574;BME280;62840;52.366;5.980;2023-02-22T10:43:55;101138.00;;;8.34;75.14
69574;BME280;62840;52.366;5.980;2023-02-22T10:46:22;101133.22;;;8.39;74.90
69574;BME280;62840;52.366;5.980;2023-02-22T10:48:55;101125.97;;;8.41;74.96
69574;BME280;62840;52.366;5.980;2023-02-22T10:51:29;101111.53;;;8.45;74.84
69574;BME280;62840;52.366;5.980;2023-02-22T10:54:06;101119.19;;;8.50;74.86
69574;BME280;62840;52.366;5.980;2023-02-22T10:56:46;101110.88;;;8.54;74.90
69574;BME280;62840;52.366;5.980;2023-02-22T10:59:25;101110.47;;;8.61;74.91
69574;BME280;62840;52.366;5.980;2023-02-22T11:01:53;101113.44;;;8.69;74.69
69574;BME280;62840;52.366;5.980;2023-02-22T11:04:20;101108.13;;;8.69;74.37
69574;BME280;62840;52.366;5.980;2023-02-22T11:07:07;101100.25;;;8.67;74.41
69574;BME280;62840;52.366;5.980;2023-02-22T11:09:45;101104.72;;;8.67;74.50
69574;BME280;62840;52.366;5.980;2023-02-22T11:12:18;101098.44;;;8.68;74.58
69574;BME280;62840;52.366;5.980;2023-02-22T11:14:45;101095.34;;;8.74;74.59
69574;BME280;62840;52.366;5.980;2023-02-22T11:17:16;101081.81;;;8.77;74.52
69574;BME280;62840;52.366;5.980;2023-02-22T11:19:52;101084.03;;;8.83;74.39
69574;BME280;62840;52.366;5.980;2023-02-22T11:22:24;101081.91;;;8.88;74.29
69574;BME280;62840;52.366;5.980;2023-02-22T11:24:54;101074.47;;;8.93;74.30
69574;BME280;62840;52.366;5.980;2023-02-22T11:27:27;101074.00;;;8.99;74.31
69574;BME280;62840;52.366;5.980;2023-02-22T11:30:07;101082.28;;;9.08;74.35
69574;BME280;62840;52.366;5.980;2023-02-22T11:32:45;101073.88;;;9.14;74.11
69574;BME280;62840;52.366;5.980;2023-02-22T11:35:19;101078.00;;;9.18;73.99
69574;BME280;62840;52.366;5.980;2023-02-22T11:38:09;101080.44;;;9.21;74.08
69574;BME280;62840;52.366;5.980;2023-02-22T11:40:44;101091.72;;;9.25;74.01
69574;BME280;62840;52.366;5.980;2023-02-22T11:43:14;101078.09;;;9.29;73.97
69574;BME280;62840;52.366;5.980;2023-02-22T11:45:57;101079.44;;;9.35;73.96
69574;BME280;62840;52.366;5.980;2023-02-22T11:48:28;101088.06;;;9.38;73.92
69574;BME280;62840;52.366;5.980;2023-02-22T11:51:11;101076.22;;;9.43;73.88
69574;BME280;62840;52.366;5.980;2023-02-22T11:53:59;101078.41;;;9.49;73.76
69574;BME280;62840;52.366;5.980;2023-02-22T11:56:39;101069.97;;;9.55;73.90
69574;BME280;62840;52.366;5.980;2023-02-22T11:59:19;101071.47;;;9.59;73.62
69574;BME280;62840;52.366;5.980;2023-02-22T12:01:57;101060.34;;;9.65;73.58
69574;BME280;62840;52.366;5.980;2023-02-22T12:04:57;101059.66;;;9.74;73.45
69574;BME280;62840;52.366;5.980;2023-02-22T12:07:46;101046.81;;;9.79;73.50
69574;BME280;62840;52.366;5.980;2023-02-22T12:10:38;101044.53;;;9.86;73.38
69574;BME280;62840;52.366;5.980;2023-02-22T12:13:28;101043.00;;;9.95;73.27
69574;BME280;62840;52.366;5.980;2023-02-22T12:16:14;101041.81;;;9.99;73.17
69574;BME280;62840;52.366;5.980;2023-02-22T12:18:58;101050.28;;;10.04;73.06
69574;BME280;62840;52.366;5.980;2023-02-22T12:21:46;101038.88;;;10.02;73.09
69574;BME280;62840;52.366;5.980;2023-02-22T12:24:19;101045.69;;;10.06;72.98
69574;BME280;62840;52.366;5.980;2023-02-22T12:26:55;101039.16;;;10.10;73.08
69574;BME280;62840;52.366;5.980;2023-02-22T12:29:29;101028.50;;;10.10;72.99
69574;BME280;62840;52.366;5.980;2023-02-22T12:32:03;101031.63;;;10.15;72.96
69574;BME280;62840;52.366;5.980;2023-02-22T12:34:37;101026.06;;;10.18;72.88
69574;BME280;62840;52.366;5.980;2023-02-22T12:37:14;101031.16;;;10.21;72.79
69574;BME280;62840;52.366;5.980;2023-02-22T12:39:51;101038.06;;;10.24;72.61
69574;BME280;62840;52.366;5.980;2023-02-22T12:42:29;101048.59;;;10.25;72.64
69574;BME280;62840;52.366;5.980;2023-02-22T12:45:12;101045.19;;;10.23;72.77
69574;BME280;62840;52.366;5.980;2023-02-22T12:47:56;101041.59;;;10.24;72.70
69574;BME280;62840;52.366;5.980;2023-02-22T12:50:30;101041.31;;;10.28;72.86
69574;BME280;62840;52.366;5.980;2023-02-22T12:52:59;101050.06;;;10.30;72.72
69574;BME280;62840;52.366;5.980;2023-02-22T12:55:37;101048.13;;;10.32;72.63
69574;BME280;62840;52.366;5.980;2023-02-22T12:58:18;101048.75;;;10.35;72.49
69574;BME280;62840;52.366;5.980;2023-02-22T13:00:51;101050.44;;;10.36;72.39
69574;BME280;62840;52.366;5.980;2023-02-22T13:03:29;101041.59;;;10.36;72.23
69574;BME280;62840;52.366;5.980;2023-02-22T13:06:07;101041.59;;;10.36;72.41
69574;BME280;62840;52.366;5.980;2023-02-22T13:08:49;101043.28;;;10.37;72.49
69574;BME280;62840;52.366;5.980;2023-02-22T13:11:32;101045.81;;;10.38;72.50
69574;BME280;62840;52.366;5.980;2023-02-22T13:14:19;101040.97;;;10.43;72.60
69574;BME280;62840;52.366;5.980;2023-02-22T13:17:14;101027.53;;;10.45;72.36
69574;BME280;62840;52.366;5.980;2023-02-22T13:19:53;101018.56;;;10.46;72.41
69574;BME280;62840;52.366;5.980;2023-02-22T13:22:28;101018.56;;;10.46;72.45
69574;BME280;62840;52.366;5.980;2023-02-22T13:25:03;101030.94;;;10.47;72.38
69574;BME280;62840;52.366;5.980;2023-02-22T13:27:39;101023.66;;;10.49;72.42
69574;BME280;62840;52.366;5.980;2023-02-22T13:30:20;101019.16;;;10.50;72.31